sensor_id;sensor_type;location;lat;lon;timestamp;temperature;humidity
3923;DHT22;1976;51.694;6.256;2023-03-01T00:01:23;1.50;94.50
3923;DHT22;1976;51.694;6.256;2023-03-01T00:03:49;1.50;94.40
3923;DHT22;1976;51.694;6.256;2023-03-01T00:06:15;1.50;94.40
3923;DHT22;1976;51.694;6.256;2023-03-01T00:08:41;1.40;94.40
3923;DHT22;1976;51.694;6.256;2023-03-01T00:11:13;1.40;94.50
3923;DHT22;1976;51.694;6.256;2023-03-01T00:13:40;1.30;94.60
3923;DHT22;1976;51.694;6.256;2023-03-01T00:16:11;1.30;94.70
3923;DHT22;1976;51.694;6.256;2023-03-01T00:18:37;1.30;94.80
3923;DHT22;1976;51.694;6.256;2023-03-01T00:21:03;1.30;94.80
3923;DHT22;1976;51.694;6.256;2023-03-01T00:23:28;1.20;95.00
3923;DHT22;1976;51.694;6.256;2023-03-01T00:25:54;1.30;95.30
3923;DHT22;1976;51.694;6.256;2023-03-01T00:28:20;1.30;95.20
3923;DHT22;1976;51.694;6.256;2023-03-01T00:30:46;1.30;95.10
3923;DHT22;1976;51.694;6.256;2023-03-01T00:33:12;1.20;95.00
3923;DHT22;1976;51.694;6.256;2023-03-01T00:35:38;1.20;95.00
3923;DHT22;1976;51.694;6.256;2023-03-01T00:38:04;1.10;95.10
3923;DHT22;1976;51.694;6.256;2023-03-01T00:40:31;1.10;95.10
3923;DHT22;1976;51.694;6.256;2023-03-01T00:42:57;1.10;95.10
3923;DHT22;1976;51.694;6.256;2023-03-01T00:45:23;1.10;95.40
3923;DHT22;1976;51.694;6.256;2023-03-01T00:47:50;1.20;95.80
3923;DHT22;1976;51.694;6.256;2023-03-01T00:50:17;1.30;95.60
3923;DHT22;1976;51.694;6.256;2023-03-01T00:52:43;1.30;95.80
3923;DHT22;1976;51.694;6.256;2023-03-01T00:55:09;1.20;95.50
3923;DHT22;1976;51.694;6.256;2023-03-01T00:57:34;1.20;95.30
3923;DHT22;1976;51.694;6.256;2023-03-01T01:00:00;1.20;95.30
3923;DHT22;1976;51.694;6.256;2023-03-01T01:02:26;1.20;95.40
3923;DHT22;1976;51.694;6.256;2023-03-01T01:04:51;1.10;95.40
3923;DHT22;1976;51.694;6.256;2023-03-01T01:07:18;1.00;95.40
3923;DHT22;1976;51.694;6.256;2023-03-01T01:09:45;0.90;95.60
3923;DHT22;1976;51.694;6.256;2023-03-01T01:12:11;0.90;95.70
3923;DHT22;1976;51.694;6.256;2023-03-01T01:14:37;0.80;95.80
3923;DHT22;1976;51.694;6.256;2023-03-01T01:17:03;0.80;96.00
3923;DHT22;1976;51.694;6.256;2023-03-01T01:19:29;0.70;96.00
3923;DHT22;1976;51.694;6.256;2023-03-01T01:21:54;0.70;96.20
3923;DHT22;1976;51.694;6.256;2023-03-01T01:24:20;0.70;96.50
3923;DHT22;1976;51.694;6.256;2023-03-01T01:26:46;0.60;96.50
3923;DHT22;1976;51.694;6.256;2023-03-01T01:29:12;0.60;96.60
3923;DHT22;1976;51.694;6.256;2023-03-01T01:31:39;0.50;96.70
3923;DHT22;1976;51.694;6.256;2023-03-01T01:34:08;0.50;96.70
3923;DHT22;1976;51.694;6.256;2023-03-01T01:36:34;0.50;96.80
3923;DHT22;1976;51.694;6.256;2023-03-01T01:39:00;0.50;96.90
3923;DHT22;1976;51.694;6.256;2023-03-01T01:41:28;0.40;97.00
3923;DHT22;1976;51.694;6.256;2023-03-01T01:44:14;0.40;97.00
3923;DHT22;1976;51.694;6.256;2023-03-01T01:47:00;0.40;97.10
3923;DHT22;1976;51.694;6.256;2023-03-01T01:49:47;0.40;97.10
3923;DHT22;1976;51.694;6.256;2023-03-01T01:52:20;0.40;97.20
3923;DHT22;1976;51.694;6.256;2023-03-01T01:54:52;0.30;97.20
3923;DHT22;1976;51.694;6.256;2023-03-01T01:57:27;0.30;97.20
3923;DHT22;1976;51.694;6.256;2023-03-01T01:59:59;0.30;97.30
3923;DHT22;1976;51.694;6.256;2023-03-01T02:02:25;0.30;97.30
3923;DHT22;1976;51.694;6.256;2023-03-01T02:05:01;0.20;97.30
3923;DHT22;1976;51.694;6.256;2023-03-01T02:07:29;0.20;97.50
3923;DHT22;1976;51.694;6.256;2023-03-01T02:09:55;0.20;98.80
3923;DHT22;1976;51.694;6.256;2023-03-01T02:12:23;0.50;99.00
3923;DHT22;1976;51.694;6.256;2023-03-01T02:14:49;0.80;98.50
3923;DHT22;1976;51.694;6.256;2023-03-01T02:17:17;0.80;98.00
3923;DHT22;1976;51.694;6.256;2023-03-01T02:22:22;0.80;97.20
3923;DHT22;1976;51.694;6.256;2023-03-01T02:27:36;0.60;97.00
3923;DHT22;1976;51.694;6.256;2023-03-01T02:30:04;0.50;97.20
3923;DHT22;1976;51.694;6.256;2023-03-01T02:32:30;0.50;97.30
3923;DHT22;1976;51.694;6.256;2023-03-01T02:34:56;0.40;97.40
3923;DHT22;1976;51.694;6.256;2023-03-01T02:37:23;0.40;97.50
3923;DHT22;1976;51.694;6.256;2023-03-01T02:39:59;0.30;97.50
3923;DHT22;1976;51.694;6.256;2023-03-01T02:42:32;0.30;97.80
3923;DHT22;1976;51.694;6.256;2023-03-01T02:44:59;0.30;97.80
3923;DHT22;1976;51.694;6.256;2023-03-01T02:47:24;0.20;97.90
3923;DHT22;1976;51.694;6.256;2023-03-01T02:49:50;0.10;97.90
3923;DHT22;1976;51.694;6.256;2023-03-01T02:55:12;0.20;98.30
3923;DHT22;1976;51.694;6.256;2023-03-01T02:57:41;0.10;98.20
3923;DHT22;1976;51.694;6.256;2023-03-01T03:00:18;0.10;98.40
3923;DHT22;1976;51.694;6.256;2023-03-01T03:02:46;0.20;98.80
3923;DHT22;1976;51.694;6.256;2023-03-01T03:05:18;0.20;98.80
3923;DHT22;1976;51.694;6.256;2023-03-01T03:07:45;0.20;98.70
3923;DHT22;1976;51.694;6.256;2023-03-01T03:10:19;0.20;98.50
3923;DHT22;1976;51.694;6.256;2023-03-01T03:12:49;0.20;98.40
3923;DHT22;1976;51.694;6.256;2023-03-01T03:15:15;0.20;98.40
3923;DHT22;1976;51.694;6.256;2023-03-01T03:17:42;0.20;98.50
3923;DHT22;1976;51.694;6.256;2023-03-01T03:20:10;0.20;98.50
3923;DHT22;1976;51.694;6.256;2023-03-01T03:22:40;0.20;98.60
3923;DHT22;1976;51.694;6.256;2023-03-01T03:25:07;0.20;98.90
3923;DHT22;1976;51.694;6.256;2023-03-01T03:27:38;0.20;99.10
3923;DHT22;1976;51.694;6.256;2023-03-01T03:30:05;0.30;99.40
3923;DHT22;1976;51.694;6.256;2023-03-01T03:32:38;0.40;99.50
3923;DHT22;1976;51.694;6.256;2023-03-01T03:35:05;0.60;99.50
3923;DHT22;1976;51.694;6.256;2023-03-01T03:37:38;0.60;99.50
3923;DHT22;1976;51.694;6.256;2023-03-01T03:40:23;0.40;98.50
3923;DHT22;1976;51.694;6.256;2023-03-01T03:42:48;0.50;98.00
3923;DHT22;1976;51.694;6.256;2023-03-01T03:45:18;0.40;98.00
3923;DHT22;1976;51.694;6.256;2023-03-01T03:47:44;0.40;98.00
3923;DHT22;1976;51.694;6.256;2023-03-01T03:50:11;0.30;97.90
3923;DHT22;1976;51.694;6.256;2023-03-01T03:52:37;0.20;97.90
3923;DHT22;1976;51.694;6.256;2023-03-01T03:55:03;0.20;97.90
3923;DHT22;1976;51.694;6.256;2023-03-01T03:57:29;0.10;98.00
3923;DHT22;1976;51.694;6.256;2023-03-01T03:59:54;0.00;98.10
3923;DHT22;1976;51.694;6.256;2023-03-01T04:02:26;-0.10;98.30
3923;DHT22;1976;51.694;6.256;2023-03-01T04:04:52;-0.20;98.50
3923;DHT22;1976;51.694;6.256;2023-03-01T04:07:17;-0.20;98.70
3923;DHT22;1976;51.694;6.256;2023-03-01T04:09:43;-0.30;98.70
3923;DHT22;1976;51.694;6.256;2023-03-01T04:12:09;-0.30;98.90
3923;DHT22;1976;51.694;6.256;2023-03-01T04:14:36;-0.40;99.10
3923;DHT22;1976;51.694;6.256;2023-03-01T04:17:02;-0.40;99.10
3923;DHT22;1976;51.694;6.256;2023-03-01T04:19:31;-0.40;99.20
3923;DHT22;1976;51.694;6.256;2023-03-01T04:22:02;-0.40;99.20
3923;DHT22;1976;51.694;6.256;2023-03-01T04:24:33;-0.50;99.40
3923;DHT22;1976;51.694;6.256;2023-03-01T04:26:59;-0.50;99.50
3923;DHT22;1976;51.694;6.256;2023-03-01T04:29:24;-0.60;99.70
3923;DHT22;1976;51.694;6.256;2023-03-01T04:31:50;-0.60;99.90
3923;DHT22;1976;51.694;6.256;2023-03-01T04:34:15;-0.60;99.70
3923;DHT22;1976;51.694;6.256;2023-03-01T04:36:41;-0.60;99.70
3923;DHT22;1976;51.694;6.256;2023-03-01T04:39:07;-0.60;99.70
3923;DHT22;1976;51.694;6.256;2023-03-01T04:41:37;-0.60;99.70
3923;DHT22;1976;51.694;6.256;2023-03-01T04:44:04;-0.70;99.70
3923;DHT22;1976;51.694;6.256;2023-03-01T04:46:30;-0.60;99.90
3923;DHT22;1976;51.694;6.256;2023-03-01T04:48:56;-0.60;99.90
3923;DHT22;1976;51.694;6.256;2023-03-01T04:51:21;-0.50;99.90
3923;DHT22;1976;51.694;6.256;2023-03-01T04:53:47;-0.50;99.90
3923;DHT22;1976;51.694;6.256;2023-03-01T04:56:13;-0.40;99.90
3923;DHT22;1976;51.694;6.256;2023-03-01T04:58:39;-0.40;99.90
3923;DHT22;1976;51.694;6.256;2023-03-01T05:01:17;-0.30;99.90
3923;DHT22;1976;51.694;6.256;2023-03-01T05:03:44;-0.30;99.90
3923;DHT22;1976;51.694;6.256;2023-03-01T05:06:11;-0.30;99.90
3923;DHT22;1976;51.694;6.256;2023-03-01T05:08:38;-0.30;99.90
3923;DHT22;1976;51.694;6.256;2023-03-01T05:11:04;-0.40;99.90
3923;DHT22;1976;51.694;6.256;2023-03-01T05:13:31;-0.40;99.90
3923;DHT22;1976;51.694;6.256;2023-03-01T05:15:59;-0.40;99.90
3923;DHT22;1976;51.694;6.256;2023-03-01T05:18:26;-0.60;99.70
3923;DHT22;1976;51.694;6.256;2023-03-01T05:21:12;-0.60;99.70
3923;DHT22;1976;51.694;6.256;2023-03-01T05:23:38;-0.60;99.90
3923;DHT22;1976;51.694;6.256;2023-03-01T05:26:05;-0.70;99.90
3923;DHT22;1976;51.694;6.256;2023-03-01T05:28:32;-0.80;99.70
3923;DHT22;1976;51.694;6.256;2023-03-01T05:30:58;-0.80;99.70
3923;DHT22;1976;51.694;6.256;2023-03-01T05:33:24;-0.90;99.70
3923;DHT22;1976;51.694;6.256;2023-03-01T05:35:51;-1.00;99.80
3923;DHT22;1976;51.694;6.256;2023-03-01T05:38:17;-1.00;99.90
3923;DHT22;1976;51.694;6.256;2023-03-01T05:40:44;-1.10;99.90
3923;DHT22;1976;51.694;6.256;2023-03-01T05:43:11;-1.10;99.90
3923;DHT22;1976;51.694;6.256;2023-03-01T05:45:38;-1.10;99.90
3923;DHT22;1976;51.694;6.256;2023-03-01T05:48:05;-1.10;99.90
3923;DHT22;1976;51.694;6.256;2023-03-01T05:50:42;-1.20;99.90
3923;DHT22;1976;51.694;6.256;2023-03-01T05:53:19;-1.20;99.90
3923;DHT22;1976;51.694;6.256;2023-03-01T05:55:46;-1.20;99.90
3923;DHT22;1976;51.694;6.256;2023-03-01T05:58:19;-1.30;99.90
3923;DHT22;1976;51.694;6.256;2023-03-01T06:00:46;-1.30;99.90
3923;DHT22;1976;51.694;6.256;2023-03-01T06:03:14;-1.30;99.90
3923;DHT22;1976;51.694;6.256;2023-03-01T06:05:41;-1.10;99.90
3923;DHT22;1976;51.694;6.256;2023-03-01T06:08:07;-1.00;99.90
3923;DHT22;1976;51.694;6.256;2023-03-01T06:10:32;-1.00;99.90
3923;DHT22;1976;51.694;6.256;2023-03-01T06:12:58;-0.90;99.90
3923;DHT22;1976;51.694;6.256;2023-03-01T06:17:51;-0.90;99.90
3923;DHT22;1976;51.694;6.256;2023-03-01T06:20:20;-0.90;99.90
3923;DHT22;1976;51.694;6.256;2023-03-01T06:22:47;-0.90;99.90
3923;DHT22;1976;51.694;6.256;2023-03-01T06:25:15;-1.00;99.90
3923;DHT22;1976;51.694;6.256;2023-03-01T06:27:41;-1.00;99.90
3923;DHT22;1976;51.694;6.256;2023-03-01T06:32:39;-1.00;99.90
3923;DHT22;1976;51.694;6.256;2023-03-01T06:35:10;-1.00;99.90
3923;DHT22;1976;51.694;6.256;2023-03-01T06:37:36;-1.00;99.90
3923;DHT22;1976;51.694;6.256;2023-03-01T06:40:03;-0.90;99.90
3923;DHT22;1976;51.694;6.256;2023-03-01T06:45:03;-0.70;99.90
3923;DHT22;1976;51.694;6.256;2023-03-01T06:47:30;-0.60;99.90
3923;DHT22;1976;51.694;6.256;2023-03-01T06:49:55;-0.40;99.90
3923;DHT22;1976;51.694;6.256;2023-03-01T06:52:21;-0.30;99.90
3923;DHT22;1976;51.694;6.256;2023-03-01T06:54:47;-0.20;99.90
3923;DHT22;1976;51.694;6.256;2023-03-01T06:57:12;-0.20;99.90
3923;DHT22;1976;51.694;6.256;2023-03-01T06:59:38;-0.20;99.90
3923;DHT22;1976;51.694;6.256;2023-03-01T07:02:03;-0.10;99.90
3923;DHT22;1976;51.694;6.256;2023-03-01T07:04:29;-0.10;99.90
3923;DHT22;1976;51.694;6.256;2023-03-01T07:06:56;-0.10;99.90
3923;DHT22;1976;51.694;6.256;2023-03-01T07:09:24;0.00;99.90
3923;DHT22;1976;51.694;6.256;2023-03-01T07:14:16;0.20;99.90
3923;DHT22;1976;51.694;6.256;2023-03-01T07:19:08;0.40;99.90
3923;DHT22;1976;51.694;6.256;2023-03-01T07:21:34;0.50;99.90
3923;DHT22;1976;51.694;6.256;2023-03-01T07:23:59;0.50;99.90
3923;DHT22;1976;51.694;6.256;2023-03-01T07:26:25;0.60;99.90
3923;DHT22;1976;51.694;6.256;2023-03-01T07:28:50;0.70;99.90
3923;DHT22;1976;51.694;6.256;2023-03-01T07:31:16;0.70;99.90
3923;DHT22;1976;51.694;6.256;2023-03-01T07:33:42;0.80;99.90
3923;DHT22;1976;51.694;6.256;2023-03-01T07:36:08;0.90;99.90
3923;DHT22;1976;51.694;6.256;2023-03-01T07:38:34;0.90;99.90
3923;DHT22;1976;51.694;6.256;2023-03-01T07:41:01;1.10;99.90
3923;DHT22;1976;51.694;6.256;2023-03-01T07:43:31;1.20;99.90
3923;DHT22;1976;51.694;6.256;2023-03-01T07:46:00;1.30;99.90
3923;DHT22;1976;51.694;6.256;2023-03-01T07:48:26;1.40;99.90
3923;DHT22;1976;51.694;6.256;2023-03-01T07:50:52;1.60;99.90
3923;DHT22;1976;51.694;6.256;2023-03-01T07:53:18;1.80;99.90
3923;DHT22;1976;51.694;6.256;2023-03-01T07:55:43;1.70;99.90
3923;DHT22;1976;51.694;6.256;2023-03-01T07:58:09;2.00;99.90
3923;DHT22;1976;51.694;6.256;2023-03-01T08:00:35;2.30;99.90
3923;DHT22;1976;51.694;6.256;2023-03-01T08:03:01;2.60;99.90
3923;DHT22;1976;51.694;6.256;2023-03-01T08:05:28;2.90;99.90
3923;DHT22;1976;51.694;6.256;2023-03-01T08:07:54;3.20;99.90
3923;DHT22;1976;51.694;6.256;2023-03-01T08:12:45;3.50;99.90
3923;DHT22;1976;51.694;6.256;2023-03-01T08:15:11;4.10;99.40
3923;DHT22;1976;51.694;6.256;2023-03-01T08:17:37;4.20;99.80
3923;DHT22;1976;51.694;6.256;2023-03-01T08:20:03;4.60;98.50
3923;DHT22;1976;51.694;6.256;2023-03-01T08:22:31;4.60;98.70
3923;DHT22;1976;51.694;6.256;2023-03-01T08:24:57;5.50;96.70
3923;DHT22;1976;51.694;6.256;2023-03-01T08:27:24;7.90;97.90
3923;DHT22;1976;51.694;6.256;2023-03-01T08:29:49;6.50;95.30
3923;DHT22;1976;51.694;6.256;2023-03-01T08:32:15;6.60;95.50
3923;DHT22;1976;51.694;6.256;2023-03-01T08:34:40;7.30;94.60
3923;DHT22;1976;51.694;6.256;2023-03-01T08:37:06;8.00;93.60
3923;DHT22;1976;51.694;6.256;2023-03-01T08:39:32;8.70;92.30
3923;DHT22;1976;51.694;6.256;2023-03-01T08:41:57;9.50;90.10
3923;DHT22;1976;51.694;6.256;2023-03-01T08:44:23;9.50;90.30
3923;DHT22;1976;51.694;6.256;2023-03-01T08:46:50;10.10;88.00
3923;DHT22;1976;51.694;6.256;2023-03-01T08:49:19;10.60;85.30
3923;DHT22;1976;51.694;6.256;2023-03-01T08:51:45;11.20;84.00
3923;DHT22;1976;51.694;6.256;2023-03-01T08:54:14;11.90;82.30
3923;DHT22;1976;51.694;6.256;2023-03-01T08:56:40;12.60;79.50
3923;DHT22;1976;51.694;6.256;2023-03-01T08:59:06;13.10;76.20
3923;DHT22;1976;51.694;6.256;2023-03-01T09:01:32;13.40;73.70
3923;DHT22;1976;51.694;6.256;2023-03-01T09:03:57;13.60;72.60
3923;DHT22;1976;51.694;6.256;2023-03-01T09:06:23;13.60;70.20
3923;DHT22;1976;51.694;6.256;2023-03-01T09:08:50;13.60;69.00
3923;DHT22;1976;51.694;6.256;2023-03-01T09:11:19;13.70;69.50
3923;DHT22;1976;51.694;6.256;2023-03-01T09:13:46;13.80;68.80
3923;DHT22;1976;51.694;6.256;2023-03-01T09:16:13;14.00;66.60
3923;DHT22;1976;51.694;6.256;2023-03-01T09:18:39;14.40;67.00
3923;DHT22;1976;51.694;6.256;2023-03-01T09:21:06;14.80;65.40
3923;DHT22;1976;51.694;6.256;2023-03-01T09:23:34;15.30;63.60
3923;DHT22;1976;51.694;6.256;2023-03-01T09:26:02;15.70;62.20
3923;DHT22;1976;51.694;6.256;2023-03-01T09:28:28;16.00;59.90
3923;DHT22;1976;51.694;6.256;2023-03-01T09:30:58;16.20;59.30
3923;DHT22;1976;51.694;6.256;2023-03-01T09:33:24;16.40;59.00
3923;DHT22;1976;51.694;6.256;2023-03-01T09:35:49;16.60;58.00
3923;DHT22;1976;51.694;6.256;2023-03-01T09:38:15;16.90;56.80
3923;DHT22;1976;51.694;6.256;2023-03-01T09:40:44;17.10;56.40
3923;DHT22;1976;51.694;6.256;2023-03-01T09:43:43;17.40;55.60
3923;DHT22;1976;51.694;6.256;2023-03-01T09:46:12;17.60;54.90
3923;DHT22;1976;51.694;6.256;2023-03-01T09:48:50;17.90;54.70
3923;DHT22;1976;51.694;6.256;2023-03-01T09:51:24;18.10;53.00
3923;DHT22;1976;51.694;6.256;2023-03-01T09:53:52;18.10;52.10
3923;DHT22;1976;51.694;6.256;2023-03-01T09:56:24;18.10;51.10
3923;DHT22;1976;51.694;6.256;2023-03-01T09:59:15;18.40;52.10
3923;DHT22;1976;51.694;6.256;2023-03-01T10:09:37;19.50;49.50
3923;DHT22;1976;51.694;6.256;2023-03-01T10:12:08;19.80;47.70
3923;DHT22;1976;51.694;6.256;2023-03-01T10:17:52;20.30;45.80
3923;DHT22;1976;51.694;6.256;2023-03-01T10:20:26;20.50;45.40
3923;DHT22;1976;51.694;6.256;2023-03-01T10:22:53;20.60;44.20
3923;DHT22;1976;51.694;6.256;2023-03-01T10:25:54;20.60;44.00
3923;DHT22;1976;51.694;6.256;2023-03-01T10:28:40;21.10;43.50
3923;DHT22;1976;51.694;6.256;2023-03-01T10:31:22;21.20;43.70
3923;DHT22;1976;51.694;6.256;2023-03-01T10:33:53;21.20;41.60
3923;DHT22;1976;51.694;6.256;2023-03-01T10:36:21;20.80;41.40
3923;DHT22;1976;51.694;6.256;2023-03-01T10:38:55;20.80;41.70
3923;DHT22;1976;51.694;6.256;2023-03-01T10:41:23;20.80;42.10
3923;DHT22;1976;51.694;6.256;2023-03-01T10:43:55;20.70;42.10
3923;DHT22;1976;51.694;6.256;2023-03-01T10:46:33;21.00;41.60
3923;DHT22;1976;51.694;6.256;2023-03-01T10:51:50;21.00;41.90
3923;DHT22;1976;51.694;6.256;2023-03-01T10:56:54;20.90;40.50
3923;DHT22;1976;51.694;6.256;2023-03-01T10:59:35;21.10;39.90
3923;DHT22;1976;51.694;6.256;2023-03-01T11:02:24;21.20;39.80
3923;DHT22;1976;51.694;6.256;2023-03-01T11:10:18;21.70;39.40
3923;DHT22;1976;51.694;6.256;2023-03-01T11:12:44;21.80;39.40
3923;DHT22;1976;51.694;6.256;2023-03-01T11:15:21;22.00;38.70
3923;DHT22;1976;51.694;6.256;2023-03-01T11:17:48;22.00;38.20
3923;DHT22;1976;51.694;6.256;2023-03-01T11:22:51;22.30;39.20
3923;DHT22;1976;51.694;6.256;2023-03-01T11:25:19;22.50;39.30
3923;DHT22;1976;51.694;6.256;2023-03-01T11:27:47;22.80;38.10
3923;DHT22;1976;51.694;6.256;2023-03-01T11:30:22;22.80;37.10
3923;DHT22;1976;51.694;6.256;2023-03-01T11:32:57;23.20;37.50
3923;DHT22;1976;51.694;6.256;2023-03-01T11:35:26;23.50;37.80
3923;DHT22;1976;51.694;6.256;2023-03-01T11:40:57;23.60;38.00
3923;DHT22;1976;51.694;6.256;2023-03-01T11:43:47;23.80;36.60
3923;DHT22;1976;51.694;6.256;2023-03-01T11:57:00;25.30;36.20
3923;DHT22;1976;51.694;6.256;2023-03-01T11:59:49;25.50;35.20
3923;DHT22;1976;51.694;6.256;2023-03-01T12:07:56;25.50;34.70
3923;DHT22;1976;51.694;6.256;2023-03-01T12:12:57;25.70;34.20
3923;DHT22;1976;51.694;6.256;2023-03-01T12:20:48;25.90;33.60
3923;DHT22;1976;51.694;6.256;2023-03-01T12:23:45;26.20;33.50
3923;DHT22;1976;51.694;6.256;2023-03-01T12:26:34;26.10;32.70
3923;DHT22;1976;51.694;6.256;2023-03-01T12:31:54;25.80;32.10
3923;DHT22;1976;51.694;6.256;2023-03-01T12:34:42;25.80;31.50
3923;DHT22;1976;51.694;6.256;2023-03-01T12:42:43;25.90;31.00
3923;DHT22;1976;51.694;6.256;2023-03-01T12:45:42;26.20;31.40
3923;DHT22;1976;51.694;6.256;2023-03-01T12:48:39;26.00;30.70
3923;DHT22;1976;51.694;6.256;2023-03-01T12:51:13;25.50;31.00
3923;DHT22;1976;51.694;6.256;2023-03-01T12:53:42;25.30;30.70
3923;DHT22;1976;51.694;6.256;2023-03-01T12:56:11;24.80;31.60
3923;DHT22;1976;51.694;6.256;2023-03-01T12:58:59;24.80;34.10
3923;DHT22;1976;51.694;6.256;2023-03-01T13:13:20;25.00;32.20
3923;DHT22;1976;51.694;6.256;2023-03-01T13:15:46;24.80;32.90
3923;DHT22;1976;51.694;6.256;2023-03-01T13:26:16;25.10;33.30
3923;DHT22;1976;51.694;6.256;2023-03-01T13:33:58;25.00;33.00
3923;DHT22;1976;51.694;6.256;2023-03-01T13:39:00;24.70;32.00
3923;DHT22;1976;51.694;6.256;2023-03-01T13:41:56;24.70;32.20
3923;DHT22;1976;51.694;6.256;2023-03-01T13:49:55;25.00;32.50
3923;DHT22;1976;51.694;6.256;2023-03-01T13:54:51;25.90;32.60
3923;DHT22;1976;51.694;6.256;2023-03-01T13:57:22;26.40;32.70
3923;DHT22;1976;51.694;6.256;2023-03-01T13:59:49;26.60;31.20
3923;DHT22;1976;51.694;6.256;2023-03-01T14:02:15;26.70;30.40
3923;DHT22;1976;51.694;6.256;2023-03-01T14:04:40;26.50;31.40
3923;DHT22;1976;51.694;6.256;2023-03-01T14:07:20;26.30;31.30
3923;DHT22;1976;51.694;6.256;2023-03-01T14:10:06;26.20;30.90
3923;DHT22;1976;51.694;6.256;2023-03-01T14:12:54;25.50;29.40
3923;DHT22;1976;51.694;6.256;2023-03-01T14:15:33;25.20;30.00
3923;DHT22;1976;51.694;6.256;2023-03-01T14:18:07;24.50;29.90
3923;DHT22;1976;51.694;6.256;2023-03-01T14:20:40;23.90;29.90
3923;DHT22;1976;51.694;6.256;2023-03-01T14:23:12;23.50;31.60
3923;DHT22;1976;51.694;6.256;2023-03-01T14:25:50;23.30;30.90
3923;DHT22;1976;51.694;6.256;2023-03-01T14:28:23;23.20;30.00
3923;DHT22;1976;51.694;6.256;2023-03-01T14:30:55;23.10;30.50
3923;DHT22;1976;51.694;6.256;2023-03-01T14:33:27;23.00;31.00
3923;DHT22;1976;51.694;6.256;2023-03-01T14:40:59;22.40;31.40
3923;DHT22;1976;51.694;6.256;2023-03-01T14:43:27;22.10;31.50
3923;DHT22;1976;51.694;6.256;2023-03-01T14:45:54;21.90;31.50
3923;DHT22;1976;51.694;6.256;2023-03-01T14:48:20;21.70;31.90
3923;DHT22;1976;51.694;6.256;2023-03-01T14:50:47;21.60;31.30
3923;DHT22;1976;51.694;6.256;2023-03-01T14:53:25;21.60;31.80
3923;DHT22;1976;51.694;6.256;2023-03-01T14:55:54;21.60;31.90
3923;DHT22;1976;51.694;6.256;2023-03-01T14:58:22;21.60;31.50
3923;DHT22;1976;51.694;6.256;2023-03-01T15:00:59;21.50;31.10
3923;DHT22;1976;51.694;6.256;2023-03-01T15:03:40;21.50;32.60
3923;DHT22;1976;51.694;6.256;2023-03-01T15:06:08;21.50;32.70
3923;DHT22;1976;51.694;6.256;2023-03-01T15:08:35;21.50;32.30
3923;DHT22;1976;51.694;6.256;2023-03-01T15:11:20;21.50;32.10
3923;DHT22;1976;51.694;6.256;2023-03-01T15:13:48;21.30;31.30
3923;DHT22;1976;51.694;6.256;2023-03-01T15:16:29;21.10;31.40
3923;DHT22;1976;51.694;6.256;2023-03-01T15:18:58;20.70;31.90
3923;DHT22;1976;51.694;6.256;2023-03-01T15:21:34;20.50;32.90
3923;DHT22;1976;51.694;6.256;2023-03-01T15:26:47;20.20;33.10
3923;DHT22;1976;51.694;6.256;2023-03-01T15:29:20;20.00;33.10
3923;DHT22;1976;51.694;6.256;2023-03-01T15:32:01;20.00;33.70
3923;DHT22;1976;51.694;6.256;2023-03-01T15:34:33;19.90;34.20
3923;DHT22;1976;51.694;6.256;2023-03-01T15:37:01;19.70;34.40
3923;DHT22;1976;51.694;6.256;2023-03-01T15:39:53;19.50;34.40
3923;DHT22;1976;51.694;6.256;2023-03-01T15:47:51;18.90;33.70
3923;DHT22;1976;51.694;6.256;2023-03-01T15:50:21;18.50;34.50
3923;DHT22;1976;51.694;6.256;2023-03-01T15:52:48;18.30;34.30
3923;DHT22;1976;51.694;6.256;2023-03-01T15:55:34;18.00;35.60
3923;DHT22;1976;51.694;6.256;2023-03-01T15:58:03;17.80;34.50
3923;DHT22;1976;51.694;6.256;2023-03-01T16:00:29;17.50;35.20
3923;DHT22;1976;51.694;6.256;2023-03-01T16:02:56;17.30;35.20
3923;DHT22;1976;51.694;6.256;2023-03-01T16:05:26;17.20;35.30
3923;DHT22;1976;51.694;6.256;2023-03-01T16:07:52;17.00;35.20
3923;DHT22;1976;51.694;6.256;2023-03-01T16:10:19;16.90;35.60
3923;DHT22;1976;51.694;6.256;2023-03-01T16:12:45;16.70;35.40
3923;DHT22;1976;51.694;6.256;2023-03-01T16:15:28;16.50;36.10
3923;DHT22;1976;51.694;6.256;2023-03-01T16:17:54;16.40;36.80
3923;DHT22;1976;51.694;6.256;2023-03-01T16:20:20;16.30;37.70
3923;DHT22;1976;51.694;6.256;2023-03-01T16:22:46;16.20;37.50
3923;DHT22;1976;51.694;6.256;2023-03-01T16:25:13;16.00;37.80
3923;DHT22;1976;51.694;6.256;2023-03-01T16:27:42;15.80;37.20
3923;DHT22;1976;51.694;6.256;2023-03-01T16:30:09;15.60;37.20
3923;DHT22;1976;51.694;6.256;2023-03-01T16:32:38;15.40;37.20
3923;DHT22;1976;51.694;6.256;2023-03-01T16:35:05;15.30;37.80
3923;DHT22;1976;51.694;6.256;2023-03-01T16:37:33;14.90;38.20
3923;DHT22;1976;51.694;6.256;2023-03-01T16:39:59;14.90;38.80
3923;DHT22;1976;51.694;6.256;2023-03-01T16:42:25;14.60;40.20
3923;DHT22;1976;51.694;6.256;2023-03-01T16:44:55;14.40;40.30
3923;DHT22;1976;51.694;6.256;2023-03-01T16:47:21;14.20;40.50
3923;DHT22;1976;51.694;6.256;2023-03-01T16:49:50;13.90;40.50
3923;DHT22;1976;51.694;6.256;2023-03-01T16:52:16;13.50;41.50
3923;DHT22;1976;51.694;6.256;2023-03-01T16:54:42;13.20;41.50
3923;DHT22;1976;51.694;6.256;2023-03-01T16:57:07;12.90;42.10
3923;DHT22;1976;51.694;6.256;2023-03-01T16:59:33;12.90;42.60
3923;DHT22;1976;51.694;6.256;2023-03-01T17:01:59;12.40;43.00
3923;DHT22;1976;51.694;6.256;2023-03-01T17:04:24;12.40;43.50
3923;DHT22;1976;51.694;6.256;2023-03-01T17:06:50;11.90;43.10
3923;DHT22;1976;51.694;6.256;2023-03-01T17:09:15;11.90;43.50
3923;DHT22;1976;51.694;6.256;2023-03-01T17:11:42;11.30;43.80
3923;DHT22;1976;51.694;6.256;2023-03-01T17:14:08;11.20;44.20
3923;DHT22;1976;51.694;6.256;2023-03-01T17:16:34;10.80;44.40
3923;DHT22;1976;51.694;6.256;2023-03-01T17:19:00;10.40;44.50
3923;DHT22;1976;51.694;6.256;2023-03-01T17:21:26;10.10;46.40
3923;DHT22;1976;51.694;6.256;2023-03-01T17:23:55;9.60;47.60
3923;DHT22;1976;51.694;6.256;2023-03-01T17:26:21;9.30;48.30
3923;DHT22;1976;51.694;6.256;2023-03-01T17:28:47;9.10;48.50
3923;DHT22;1976;51.694;6.256;2023-03-01T17:31:17;9.10;49.00
3923;DHT22;1976;51.694;6.256;2023-03-01T17:33:43;8.80;49.30
3923;DHT22;1976;51.694;6.256;2023-03-01T17:36:09;8.70;50.80
3923;DHT22;1976;51.694;6.256;2023-03-01T17:41:02;8.30;50.20
3923;DHT22;1976;51.694;6.256;2023-03-01T17:43:28;8.10;52.20
3923;DHT22;1976;51.694;6.256;2023-03-01T17:45:54;8.00;52.30
3923;DHT22;1976;51.694;6.256;2023-03-01T17:48:21;7.90;52.30
3923;DHT22;1976;51.694;6.256;2023-03-01T17:50:47;7.70;55.70
3923;DHT22;1976;51.694;6.256;2023-03-01T17:53:12;7.70;56.10
3923;DHT22;1976;51.694;6.256;2023-03-01T17:55:40;7.50;53.50
3923;DHT22;1976;51.694;6.256;2023-03-01T17:58:07;7.40;53.10
3923;DHT22;1976;51.694;6.256;2023-03-01T18:00:33;7.30;53.40
3923;DHT22;1976;51.694;6.256;2023-03-01T18:02:59;7.20;53.80
3923;DHT22;1976;51.694;6.256;2023-03-01T18:05:25;7.10;54.20
3923;DHT22;1976;51.694;6.256;2023-03-01T18:07:52;7.00;54.40
3923;DHT22;1976;51.694;6.256;2023-03-01T18:10:18;6.80;55.40
3923;DHT22;1976;51.694;6.256;2023-03-01T18:12:44;6.70;55.90
3923;DHT22;1976;51.694;6.256;2023-03-01T18:15:10;6.60;56.10
3923;DHT22;1976;51.694;6.256;2023-03-01T18:17:36;6.50;56.60
3923;DHT22;1976;51.694;6.256;2023-03-01T18:20:03;6.40;57.50
3923;DHT22;1976;51.694;6.256;2023-03-01T18:22:30;6.40;59.10
3923;DHT22;1976;51.694;6.256;2023-03-01T18:24:56;6.50;58.90
3923;DHT22;1976;51.694;6.256;2023-03-01T18:27:22;6.40;58.30
3923;DHT22;1976;51.694;6.256;2023-03-01T18:29:47;6.30;58.50
3923;DHT22;1976;51.694;6.256;2023-03-01T18:32:13;6.10;59.00
3923;DHT22;1976;51.694;6.256;2023-03-01T18:34:39;5.90;59.20